Time;durP1;ratioP1;P1;durP2;ratioP2;P2;SDS_P1;SDS_P2;PMS_P1;PMS_P2;Temp;Humidity;BMP_temperature;BMP_pressure;BME280_temperature;BME280_humidity;BME280_pressure;Samples;Min_cycle;Max_cycle;Signal;HPM_P1;HPM_P2
2022/05/08 00:02:34;;;;;;;;;37.75;30.50;;;;;;;;5116959;27;51138;-48
2022/05/08 00:05:18;;;;;;;;;34.75;30.75;;;;;;;;5120709;27;51127;-47
2022/05/08 00:08:03;;;;;;;;;34.50;30.75;;;;;;;;5119407;27;51387;-46
2022/05/08 00:10:47;;;;;;;;;36.00;29.25;;;;;;;;5119785;27;51469;-48
2022/05/08 00:13:32;;;;;;;;;38.00;30.50;;;;;;;;5113416;27;51098;-49
2022/05/08 00:16:16;;;;;;;;;34.25;28.75;;;;;;;;5100242;27;51082;-48
2022/05/08 00:19:00;;;;;;;;;33.75;31.00;;;;;;;;5100114;27;51580;-49
2022/05/08 00:21:44;;;;;;;;;32.25;31.00;;;;;;;;5099963;27;51083;-45
2022/05/08 00:24:29;;;;;;;;;33.50;31.25;;;;;;;;5115797;27;51125;-48
2022/05/08 00:27:13;;;;;;;;;33.25;29.50;;;;;;;;5121289;27;51104;-47
2022/05/08 00:29:58;;;;;;;;;35.00;30.50;;;;;;;;5104612;27;51537;-47
2022/05/08 00:32:42;;;;;;;;;36.25;30.75;;;;;;;;5100435;27;51142;-48
2022/05/08 00:35:27;;;;;;;;;33.25;30.50;;;;;;;;5100351;27;51050;-46
2022/05/08 00:38:11;;;;;;;;;35.75;30.25;;;;;;;;5100457;27;51263;-48
2022/05/08 00:40:55;;;;;;;;;36.25;32.25;;;;;;;;5100801;27;51033;-46
2022/05/08 00:43:40;;;;;;;;;39.25;31.50;;;;;;;;5100189;27;51096;-48
2022/05/08 00:46:25;;;;;;;;;43.25;34.75;;;;;;;;5119959;27;51238;-46
2022/05/08 00:49:09;;;;;;;;;39.50;33.25;;;;;;;;5120473;27;51142;-48
2022/05/08 00:51:54;;;;;;;;;43.75;36.00;;;;;;;;5121279;27;51214;-48
2022/05/08 00:54:38;;;;;;;;;39.50;33.50;;;;;;;;5120041;27;51124;-49
2022/05/08 00:57:23;;;;;;;;;39.50;32.75;;;;;;;;5113408;27;51072;-47
2022/05/08 01:00:08;;;;;;;;;40.00;34.50;;;;;;;;5120907;27;51129;-47
2022/05/08 01:02:57;;;;;;;;;42.75;35.50;;;;;;;;5117428;27;51145;-48
2022/05/08 01:05:41;;;;;;;;;45.25;34.00;;;;;;;;5120650;27;51009;-48
2022/05/08 01:08:26;;;;;;;;;35.75;32.50;;;;;;;;5120560;27;51113;-47
2022/05/08 01:11:11;;;;;;;;;38.25;32.00;;;;;;;;5120713;27;51636;-48
2022/05/08 01:13:55;;;;;;;;;40.00;34.00;;;;;;;;5120113;27;51056;-50
2022/05/08 01:16:40;;;;;;;;;37.50;32.00;;;;;;;;5120528;27;51025;-45
2022/05/08 01:19:24;;;;;;;;;36.25;32.00;;;;;;;;5120798;27;51040;-49
2022/05/08 01:22:10;;;;;;;;;32.50;30.50;;;;;;;;5120567;27;51038;-45
2022/05/08 01:24:56;;;;;;;;;34.75;30.50;;;;;;;;5120820;27;50989;-47
2022/05/08 01:27:41;;;;;;;;;36.00;31.50;;;;;;;;5120165;27;51056;-46
2022/05/08 01:30:30;;;;;;;;;38.25;33.00;;;;;;;;5112786;27;51070;-46
2022/05/08 01:33:15;;;;;;;;;41.00;32.75;;;;;;;;5087464;27;51188;-47
2022/05/08 01:36:01;;;;;;;;;37.75;29.00;;;;;;;;5100176;27;51523;-50
2022/05/08 01:38:47;;;;;;;;;40.00;33.00;;;;;;;;5099622;27;51279;-49
2022/05/08 01:41:31;;;;;;;;;36.50;30.75;;;;;;;;5120247;27;51024;-47
2022/05/08 01:44:17;;;;;;;;;36.50;31.50;;;;;;;;5124178;27;51479;-47
2022/05/08 01:50:07;;;;;;;;;32.25;27.75;;;;;;;;5124164;27;51565;-45
2022/05/08 01:52:51;;;;;;;;;31.25;27.75;;;;;;;;5123858;27;51089;-48
2022/05/08 01:55:54;;;;;;;;;24.00;22.25;;;;;;;;5123976;27;51118;-50
2022/05/08 01:59:02;;;;;;;;;30.50;27.25;;;;;;;;5123833;27;51147;-48
2022/05/08 02:01:46;;;;;;;;;27.50;24.50;;;;;;;;5094579;27;51551;-48
2022/05/08 02:04:32;;;;;;;;;24.00;22.00;;;;;;;;5103074;27;51262;-47
2022/05/08 02:07:24;;;;;;;;;26.25;19.75;;;;;;;;5103537;27;51117;-46
2022/05/08 02:10:11;;;;;;;;;26.50;22.00;;;;;;;;5120114;27;51363;-49
2022/05/08 02:13:07;;;;;;;;;22.50;21.00;;;;;;;;5123490;27;51071;-47
2022/05/08 02:16:01;;;;;;;;;26.25;20.75;;;;;;;;5123740;27;51482;-46
2022/05/08 02:18:47;;;;;;;;;24.50;23.25;;;;;;;;5123208;27;51085;-47
2022/05/08 02:21:42;;;;;;;;;26.75;24.25;;;;;;;;5123611;27;51056;-46
2022/05/08 02:24:40;;;;;;;;;24.50;22.00;;;;;;;;5123331;27;51146;-46
2022/05/08 02:27:25;;;;;;;;;23.25;20.75;;;;;;;;5122045;27;51905;-46
2022/05/08 02:30:12;;;;;;;;;23.25;18.75;;;;;;;;5102688;27;51061;-46
2022/05/08 02:33:00;;;;;;;;;25.00;19.75;;;;;;;;5121370;27;51474;-46
2022/05/08 02:35:47;;;;;;;;;23.75;20.00;;;;;;;;5103879;27;51145;-49
2022/05/08 02:38:42;;;;;;;;;26.00;23.50;;;;;;;;5102722;27;51095;-46
2022/05/08 02:41:28;;;;;;;;;27.75;25.50;;;;;;;;5120310;27;51049;-48
2022/05/08 02:44:15;;;;;;;;;26.75;22.25;;;;;;;;5120978;27;51139;-49
2022/05/08 02:47:01;;;;;;;;;24.50;21.75;;;;;;;;5121303;27;51009;-48
2022/05/08 02:49:45;;;;;;;;;29.50;25.25;;;;;;;;5118907;27;51024;-51
2022/05/08 02:52:31;;;;;;;;;30.25;28.00;;;;;;;;5123303;27;51498;-51
2022/05/08 02:58:36;;;;;;;;;34.75;29.50;;;;;;;;5123037;27;51043;-46
2022/05/08 03:01:21;;;;;;;;;34.75;30.00;;;;;;;;5122958;27;51143;-49
2022/05/08 03:04:07;;;;;;;;;31.25;29.50;;;;;;;;5123075;27;51054;-45
2022/05/08 03:06:52;;;;;;;;;33.00;29.50;;;;;;;;5122967;27;51046;-45
2022/05/08 03:09:37;;;;;;;;;33.75;29.00;;;;;;;;5122569;27;51091;-47
2022/05/08 03:12:23;;;;;;;;;32.25;29.00;;;;;;;;5123076;27;51147;-46
2022/05/08 03:15:08;;;;;;;;;31.00;29.00;;;;;;;;5106393;27;51084;-47
2022/05/08 03:17:53;;;;;;;;;27.25;21.00;;;;;;;;5122774;27;51534;-48
2022/05/08 03:20:41;;;;;;;;;31.50;27.00;;;;;;;;5122290;27;51187;-46
2022/05/08 03:23:28;;;;;;;;;28.00;27.75;;;;;;;;5122891;27;51097;-48
2022/05/08 03:26:14;;;;;;;;;30.75;28.25;;;;;;;;5122563;27;51019;-50
2022/05/08 03:29:00;;;;;;;;;29.75;28.75;;;;;;;;5122406;27;51158;-47
2022/05/08 03:31:46;;;;;;;;;38.50;31.75;;;;;;;;5123047;27;51533;-48
2022/05/08 03:34:32;;;;;;;;;30.75;27.50;;;;;;;;5122054;27;51092;-45
2022/05/08 03:37:17;;;;;;;;;31.75;28.25;;;;;;;;5122071;27;51139;-47
2022/05/08 03:40:01;;;;;;;;;34.25;30.25;;;;;;;;5122799;27;51163;-49
2022/05/08 03:42:45;;;;;;;;;34.50;31.50;;;;;;;;5122037;27;51612;-48
2022/05/08 03:45:30;;;;;;;;;32.25;29.00;;;;;;;;5122023;27;51219;-47
2022/05/08 03:48:15;;;;;;;;;31.00;28.75;;;;;;;;5121722;27;51016;-47
2022/05/08 03:50:59;;;;;;;;;36.25;31.25;;;;;;;;5121696;27;51543;-45
2022/05/08 03:53:43;;;;;;;;;37.25;31.25;;;;;;;;5121746;27;51075;-48
2022/05/08 03:56:28;;;;;;;;;41.75;34.50;;;;;;;;5121622;27;51120;-47
2022/05/08 03:59:12;;;;;;;;;40.75;32.00;;;;;;;;5121511;27;51067;-49
2022/05/08 04:01:57;;;;;;;;;41.25;34.50;;;;;;;;5121752;27;51130;-49
2022/05/08 04:04:42;;;;;;;;;59.00;48.25;;;;;;;;5120836;27;51129;-49
2022/05/08 04:07:27;;;;;;;;;39.75;35.25;;;;;;;;5121679;27;51586;-46
2022/05/08 04:10:11;;;;;;;;;47.00;37.50;;;;;;;;5121403;27;51194;-46
2022/05/08 04:12:55;;;;;;;;;41.75;35.00;;;;;;;;5121758;27;51022;-46
2022/05/08 04:18:43;;;;;;;;;43.75;32.00;;;;;;;;5121143;27;51013;-48
2022/05/08 04:21:27;;;;;;;;;46.50;33.50;;;;;;;;5121136;27;51560;-49
2022/05/08 04:24:17;;;;;;;;;41.75;33.00;;;;;;;;5121225;27;51048;-50
2022/05/08 04:27:02;;;;;;;;;36.50;32.75;;;;;;;;5121304;27;51120;-48
2022/05/08 04:29:46;;;;;;;;;43.25;35.00;;;;;;;;5120966;27;50983;-48
2022/05/08 04:32:31;;;;;;;;;43.50;36.00;;;;;;;;5120846;27;51020;-48
2022/05/08 04:35:15;;;;;;;;;45.75;37.25;;;;;;;;5120639;27;51068;-46
2022/05/08 04:37:59;;;;;;;;;47.25;38.25;;;;;;;;5121403;27;50989;-48
2022/05/08 04:40:44;;;;;;;;;51.25;40.50;;;;;;;;5120897;27;51117;-49
2022/05/08 04:43:28;;;;;;;;;54.50;42.50;;;;;;;;5120949;27;51106;-47
2022/05/08 04:46:13;;;;;;;;;56.75;46.00;;;;;;;;5120988;27;51614;-48
2022/05/08 04:48:57;;;;;;;;;61.50;49.00;;;;;;;;5121087;27;53132;-47
2022/05/08 04:51:41;;;;;;;;;57.50;45.75;;;;;;;;5120491;27;51322;-47
2022/05/08 04:54:26;;;;;;;;;49.00;39.00;;;;;;;;5120578;27;51101;-49
2022/05/08 04:57:10;;;;;;;;;59.25;47.75;;;;;;;;5114284;27;51466;-46
2022/05/08 05:00:00;;;;;;;;;54.25;41.25;;;;;;;;5120533;27;51058;-48
2022/05/08 05:02:44;;;;;;;;;43.00;34.75;;;;;;;;5121030;27;51148;-49
2022/05/08 05:05:29;;;;;;;;;44.50;35.50;;;;;;;;5120254;27;51119;-47
2022/05/08 05:08:14;;;;;;;;;48.50;37.50;;;;;;;;5120831;27;51236;-47
2022/05/08 05:10:58;;;;;;;;;47.00;37.25;;;;;;;;5120395;27;51167;-46
2022/05/08 05:13:42;;;;;;;;;45.00;35.50;;;;;;;;5120594;27;51069;-48
2022/05/08 05:16:27;;;;;;;;;45.50;35.50;;;;;;;;5123749;27;51385;-48
2022/05/08 05:19:12;;;;;;;;;42.00;34.50;;;;;;;;5104023;27;51169;-47
2022/05/08 05:21:56;;;;;;;;;40.75;32.75;;;;;;;;5103785;27;51560;-47
2022/05/08 05:24:41;;;;;;;;;37.00;30.75;;;;;;;;5116813;27;51044;-48
2022/05/08 05:27:25;;;;;;;;;45.00;36.25;;;;;;;;5124665;27;51029;-47
2022/05/08 05:30:10;;;;;;;;;53.00;42.00;;;;;;;;5124404;27;51379;-48
2022/05/08 05:32:54;;;;;;;;;51.25;40.25;;;;;;;;5124334;27;51167;-47
2022/05/08 05:35:38;;;;;;;;;46.75;38.25;;;;;;;;5124662;27;51151;-44
2022/05/08 05:38:23;;;;;;;;;47.75;38.25;;;;;;;;5124488;27;50943;-48
2022/05/08 05:41:07;;;;;;;;;40.75;35.25;;;;;;;;5124176;27;51015;-46
2022/05/08 05:43:52;;;;;;;;;37.25;30.00;;;;;;;;5117371;27;51056;-48
2022/05/08 05:49:39;;;;;;;;;44.25;35.75;;;;;;;;5124119;27;51141;-45
2022/05/08 05:52:25;;;;;;;;;45.75;38.00;;;;;;;;5124508;27;51006;-48
2022/05/08 05:55:09;;;;;;;;;41.75;35.50;;;;;;;;5123894;27;51350;-47
2022/05/08 05:57:54;;;;;;;;;43.25;35.50;;;;;;;;5123944;27;51117;-46
2022/05/08 06:00:38;;;;;;;;;47.50;38.50;;;;;;;;5124258;27;51505;-47
2022/05/08 06:03:23;;;;;;;;;45.50;38.50;;;;;;;;5124131;27;51123;-45
2022/05/08 06:06:07;;;;;;;;;43.00;33.50;;;;;;;;5123703;27;51084;-46
2022/05/08 06:08:52;;;;;;;;;46.75;38.75;;;;;;;;5110603;27;51137;-45
2022/05/08 06:11:36;;;;;;;;;51.25;42.75;;;;;;;;5103304;27;51204;-48
2022/05/08 06:14:20;;;;;;;;;58.75;45.50;;;;;;;;5103052;27;51156;-48
2022/05/08 06:17:05;;;;;;;;;51.00;42.00;;;;;;;;5103096;27;51264;-46
2022/05/08 06:19:49;;;;;;;;;52.50;43.25;;;;;;;;5102887;27;51562;-45
2022/05/08 06:22:34;;;;;;;;;54.50;42.75;;;;;;;;5121479;27;51208;-47
2022/05/08 06:25:18;;;;;;;;;54.75;43.25;;;;;;;;5122874;27;51555;-47
2022/05/08 06:28:03;;;;;;;;;44.50;37.75;;;;;;;;5123621;27;51052;-50
2022/05/08 06:30:47;;;;;;;;;47.00;38.50;;;;;;;;5123258;27;51353;-49
2022/05/08 06:33:32;;;;;;;;;48.00;38.25;;;;;;;;5123542;27;51069;-50
2022/05/08 06:36:16;;;;;;;;;43.00;35.25;;;;;;;;5123336;27;51251;-46
2022/05/08 06:39:00;;;;;;;;;41.50;33.25;;;;;;;;5123051;27;51141;-48
2022/05/08 06:41:45;;;;;;;;;44.25;34.50;;;;;;;;5123539;27;51010;-48
2022/05/08 06:44:29;;;;;;;;;44.50;34.75;;;;;;;;5122841;27;51333;-57
2022/05/08 06:47:13;;;;;;;;;45.75;35.25;;;;;;;;5122718;27;51101;-53
2022/05/08 06:49:58;;;;;;;;;43.50;34.00;;;;;;;;5122937;27;51158;-56
2022/05/08 06:52:42;;;;;;;;;22.00;17.75;;;;;;;;5124101;27;51097;-53
2022/05/08 06:55:27;;;;;;;;;10.75;6.50;;;;;;;;5115410;27;51509;-55
2022/05/08 06:58:12;;;;;;;;;42.50;35.00;;;;;;;;5108516;27;51505;-55
2022/05/08 07:03:59;;;;;;;;;45.25;37.00;;;;;;;;5122453;27;51396;-52
2022/05/08 07:06:43;;;;;;;;;32.00;29.50;;;;;;;;5122647;27;51302;-51
2022/05/08 07:09:28;;;;;;;;;30.75;29.25;;;;;;;;5102569;27;51074;-52
2022/05/08 07:12:12;;;;;;;;;34.50;28.00;;;;;;;;5101990;27;51108;-52
2022/05/08 07:14:58;;;;;;;;;33.00;29.25;;;;;;;;5102000;27;51043;-54
2022/05/08 07:17:42;;;;;;;;;33.25;30.25;;;;;;;;5102502;27;51150;-54
2022/05/08 07:20:27;;;;;;;;;37.50;30.50;;;;;;;;5101554;27;51043;-50
2022/05/08 07:23:11;;;;;;;;;20.75;17.75;;;;;;;;5107429;27;51109;-54
2022/05/08 07:25:56;;;;;;;;;19.00;18.00;;;;;;;;5122391;27;51166;-54
2022/05/08 07:28:41;;;;;;;;;15.00;13.50;;;;;;;;5122372;27;51147;-55
2022/05/08 07:31:25;;;;;;;;;11.00;11.00;;;;;;;;5122345;27;51111;-51
2022/05/08 07:37:12;;;;;;;;;10.50;9.00;;;;;;;;5121655;27;51101;-54
2022/05/08 07:39:56;;;;;;;;;17.75;15.25;;;;;;;;5121426;27;51445;-56
2022/05/08 07:42:41;;;;;;;;;17.50;15.25;;;;;;;;5122249;27;51163;-55
2022/05/08 07:45:26;;;;;;;;;12.75;11.50;;;;;;;;5086589;27;51134;-54
2022/05/08 07:48:10;;;;;;;;;13.00;9.25;;;;;;;;5101376;27;51111;-52
2022/05/08 07:50:55;;;;;;;;;11.00;10.75;;;;;;;;5119579;27;51215;-54
2022/05/08 07:53:39;;;;;;;;;9.75;9.75;;;;;;;;5121330;27;51082;-54
2022/05/08 07:56:23;;;;;;;;;6.25;6.25;;;;;;;;5121586;27;51080;-51
2022/05/08 07:59:08;;;;;;;;;8.50;8.50;;;;;;;;5121671;27;51146;-52
2022/05/08 08:01:52;;;;;;;;;12.75;6.50;;;;;;;;5104172;27;51131;-54
2022/05/08 08:04:37;;;;;;;;;5.00;5.00;;;;;;;;5100445;27;51208;-53
2022/05/08 08:07:21;;;;;;;;;6.50;4.00;;;;;;;;5117420;27;51178;-53
2022/05/08 08:10:06;;;;;;;;;5.25;5.00;;;;;;;;5101719;27;51198;-55
2022/05/08 08:12:51;;;;;;;;;6.50;5.00;;;;;;;;5097617;27;51306;-56
2022/05/08 08:15:36;;;;;;;;;7.25;3.00;;;;;;;;5096478;27;51283;-53
2022/05/08 08:18:21;;;;;;;;;4.25;3.50;;;;;;;;5107088;27;51248;-54
2022/05/08 08:21:05;;;;;;;;;4.50;4.50;;;;;;;;5120499;27;51172;-54
2022/05/08 08:23:50;;;;;;;;;4.25;4.25;;;;;;;;5120285;27;51574;-56
2022/05/08 08:26:37;;;;;;;;;7.00;5.00;;;;;;;;5087194;27;51202;-54
2022/05/08 08:29:21;;;;;;;;;9.25;4.50;;;;;;;;5100492;27;51074;-56
2022/05/08 08:32:06;;;;;;;;;10.25;5.50;;;;;;;;5098422;27;51208;-55
2022/05/08 08:34:51;;;;;;;;;5.50;5.50;;;;;;;;5099287;27;51490;-48
2022/05/08 08:37:36;;;;;;;;;7.00;7.00;;;;;;;;5103118;27;51240;-52
2022/05/08 08:40:20;;;;;;;;;8.50;6.25;;;;;;;;5093583;27;51181;-54
2022/05/08 08:43:05;;;;;;;;;8.75;6.25;;;;;;;;5110139;27;51081;-53
2022/05/08 08:48:53;;;;;;;;;6.75;4.50;;;;;;;;5120017;27;51491;-54
2022/05/08 08:51:38;;;;;;;;;7.50;4.75;;;;;;;;5120005;27;51537;-53
2022/05/08 08:54:22;;;;;;;;;6.00;4.00;;;;;;;;5119565;27;51152;-53
2022/05/08 08:57:06;;;;;;;;;5.75;3.50;;;;;;;;5120721;27;51120;-51
2022/05/08 08:59:51;;;;;;;;;4.50;4.25;;;;;;;;5114088;27;51619;-55
2022/05/08 09:02:35;;;;;;;;;8.00;6.00;;;;;;;;5115495;27;51233;-52
2022/05/08 09:05:20;;;;;;;;;5.00;3.75;;;;;;;;5102003;27;51303;-53
2022/05/08 09:08:04;;;;;;;;;1.00;1.00;;;;;;;;5103091;27;51243;-51
2022/05/08 09:10:49;;;;;;;;;1.50;0.00;;;;;;;;5102647;27;51184;-53
2022/05/08 09:13:47;;;;;;;;;0.25;0.00;;;;;;;;5107263;27;51563;-53
2022/05/08 09:16:51;;;;;;;;;0.00;0.00;;;;;;;;5099159;27;51459;-54
2022/05/08 09:19:39;;;;;;;;;0.00;0.00;;;;;;;;5114106;27;51305;-54
2022/05/08 09:22:23;;;;;;;;;0.00;0.00;;;;;;;;5099587;27;51121;-53
2022/05/08 09:25:08;;;;;;;;;0.00;0.00;;;;;;;;5099778;27;51055;-53
2022/05/08 09:27:59;;;;;;;;;0.00;0.00;;;;;;;;5116631;27;51045;-53
2022/05/08 09:30:54;;;;;;;;;0.00;0.00;;;;;;;;5119831;27;51290;-53
2022/05/08 09:33:48;;;;;;;;;0.00;0.00;;;;;;;;5120261;27;51319;-52
2022/05/08 09:36:33;;;;;;;;;0.25;0.00;;;;;;;;5119872;27;51112;-52
2022/05/08 09:39:21;;;;;;;;;0.00;0.00;;;;;;;;5119851;27;51163;-53
2022/05/08 09:42:05;;;;;;;;;0.00;0.00;;;;;;;;5119263;27;51290;-53
2022/05/08 09:45:07;;;;;;;;;0.25;0.00;;;;;;;;5119693;27;51025;-50
2022/05/08 09:47:51;;;;;;;;;0.00;0.00;;;;;;;;5119485;27;51038;-54
2022/05/08 09:50:36;;;;;;;;;0.75;0.00;;;;;;;;5119839;27;51563;-55
2022/05/08 09:53:20;;;;;;;;;0.00;0.00;;;;;;;;5119870;27;51191;-52
2022/05/08 09:56:06;;;;;;;;;0.00;0.00;;;;;;;;5120049;27;51048;-51
2022/05/08 09:58:50;;;;;;;;;0.00;0.00;;;;;;;;5119572;27;51104;-51
2022/05/08 10:01:35;;;;;;;;;0.00;0.00;;;;;;;;5121022;27;51094;-53
2022/05/08 10:04:19;;;;;;;;;0.00;0.00;;;;;;;;5102426;27;51289;-51
2022/05/08 10:07:04;;;;;;;;;0.00;0.00;;;;;;;;5102166;27;51088;-51
2022/05/08 10:16:01;;;;;;;;;1.00;0.00;;;;;;;;5118264;27;51486;-53
2022/05/08 10:18:46;;;;;;;;;0.00;0.00;;;;;;;;5123061;27;51139;-52
2022/05/08 10:21:30;;;;;;;;;0.00;0.00;;;;;;;;5122750;27;51112;-51
2022/05/08 10:24:31;;;;;;;;;1.00;0.00;;;;;;;;5122629;27;51095;-52
2022/05/08 10:27:16;;;;;;;;;1.00;0.00;;;;;;;;5095992;27;51063;-50
2022/05/08 10:30:03;;;;;;;;;0.00;0.00;;;;;;;;5122080;27;51120;-55
2022/05/08 10:32:47;;;;;;;;;2.75;0.00;;;;;;;;5122407;27;51153;-54
2022/05/08 10:35:32;;;;;;;;;0.00;0.00;;;;;;;;5102416;27;51133;-53
2022/05/08 10:38:16;;;;;;;;;1.00;1.00;;;;;;;;5121902;27;50987;-54
2022/05/08 10:41:00;;;;;;;;;0.75;0.25;;;;;;;;5121937;27;51094;-55
2022/05/08 10:43:45;;;;;;;;;1.00;0.00;;;;;;;;5122658;27;51111;-52
2022/05/08 10:46:29;;;;;;;;;1.00;1.00;;;;;;;;5122709;27;51713;-54
2022/05/08 10:49:14;;;;;;;;;5.25;1.00;;;;;;;;5121761;27;51514;-54
2022/05/08 10:52:06;;;;;;;;;0.25;0.00;;;;;;;;5122425;27;50993;-52
2022/05/08 10:54:56;;;;;;;;;1.00;0.00;;;;;;;;5122296;27;50999;-55
2022/05/08 10:57:43;;;;;;;;;1.25;1.25;;;;;;;;5111308;27;51417;-56
2022/05/08 11:00:28;;;;;;;;;1.75;0.50;;;;;;;;5101220;27;51097;-53
2022/05/08 11:03:19;;;;;;;;;4.00;4.00;;;;;;;;5101428;27;51224;-55
2022/05/08 11:06:04;;;;;;;;;0.00;0.00;;;;;;;;5119891;27;51431;-55
2022/05/08 11:08:48;;;;;;;;;9.00;8.25;;;;;;;;5121632;27;51082;-52
2022/05/08 11:11:33;;;;;;;;;3.00;3.00;;;;;;;;5115804;27;51285;-51
2022/05/08 11:14:23;;;;;;;;;1.00;1.00;;;;;;;;5091049;27;51095;-54
2022/05/08 11:17:15;;;;;;;;;0.50;0.50;;;;;;;;5100931;27;51054;-54
2022/05/08 11:20:00;;;;;;;;;1.00;1.00;;;;;;;;5116810;27;51141;-53
2022/05/08 11:22:55;;;;;;;;;2.00;1.00;;;;;;;;5120139;27;51131;-56
2022/05/08 11:25:39;;;;;;;;;2.00;1.00;;;;;;;;5109023;27;51055;-54
2022/05/08 11:28:24;;;;;;;;;1.00;1.00;;;;;;;;5105620;27;52056;-53
2022/05/08 11:31:16;;;;;;;;;2.00;1.00;;;;;;;;5120000;27;51018;-56
2022/05/08 11:37:04;;;;;;;;;0.00;0.00;;;;;;;;5116556;27;51349;-48
2022/05/08 11:39:48;;;;;;;;;2.25;1.00;;;;;;;;5101981;27;51200;-55
2022/05/08 11:42:38;;;;;;;;;2.00;0.50;;;;;;;;5100665;27;51188;-53
2022/05/08 11:45:22;;;;;;;;;4.25;2.00;;;;;;;;5105229;27;51115;-52
2022/05/08 11:48:06;;;;;;;;;1.00;1.00;;;;;;;;5114466;27;51140;-53
2022/05/08 11:50:54;;;;;;;;;4.25;2.00;;;;;;;;5120891;27;51083;-53
2022/05/08 11:53:56;;;;;;;;;1.00;1.00;;;;;;;;5119793;27;51064;-52
2022/05/08 11:56:40;;;;;;;;;2.00;0.50;;;;;;;;5118135;27;51322;-56
2022/05/08 11:59:24;;;;;;;;;2.50;1.00;;;;;;;;5100369;27;51145;-54
2022/05/08 12:02:10;;;;;;;;;0.00;0.00;;;;;;;;5100710;27;51405;-51
2022/05/08 12:04:55;;;;;;;;;1.00;1.00;;;;;;;;5100733;27;51158;-53
2022/05/08 12:07:41;;;;;;;;;0.50;0.00;;;;;;;;5119617;27;51133;-54
2022/05/08 12:10:38;;;;;;;;;2.00;0.25;;;;;;;;5121333;27;51396;-52
2022/05/08 12:13:22;;;;;;;;;0.50;0.50;;;;;;;;5121024;27;51147;-54
2022/05/08 12:16:16;;;;;;;;;0.25;0.25;;;;;;;;5120947;27;51199;-53
2022/05/08 12:19:16;;;;;;;;;0.00;0.00;;;;;;;;5121479;27;51006;-54
2022/05/08 12:22:15;;;;;;;;;0.00;0.00;;;;;;;;5121089;27;51065;-54
2022/05/08 12:25:00;;;;;;;;;0.00;0.00;;;;;;;;5120249;27;51435;-52
2022/05/08 12:27:44;;;;;;;;;2.00;0.75;;;;;;;;5121095;27;51264;-53
2022/05/08 12:30:29;;;;;;;;;2.25;0.75;;;;;;;;5121144;27;51049;-56
2022/05/08 12:33:13;;;;;;;;;0.00;0.00;;;;;;;;5121328;27;51061;-55
2022/05/08 12:35:57;;;;;;;;;0.00;0.00;;;;;;;;5088023;27;51493;-53
2022/05/08 12:38:42;;;;;;;;;2.00;0.00;;;;;;;;5121405;27;51441;-53
2022/05/08 12:41:26;;;;;;;;;1.00;1.00;;;;;;;;5121134;27;50936;-55
2022/05/08 12:44:11;;;;;;;;;0.00;0.00;;;;;;;;5121414;27;51197;-54
2022/05/08 12:46:56;;;;;;;;;0.00;0.00;;;;;;;;5121090;27;51350;-54
2022/05/08 12:49:41;;;;;;;;;0.00;0.00;;;;;;;;5121238;27;51142;-54
2022/05/08 12:52:26;;;;;;;;;0.00;0.00;;;;;;;;5121164;27;51257;-55
2022/05/08 12:55:10;;;;;;;;;1.25;0.00;;;;;;;;5120690;27;51127;-52
2022/05/08 13:00:57;;;;;;;;;0.00;0.00;;;;;;;;5117756;27;51540;-55
2022/05/08 13:03:42;;;;;;;;;0.00;0.00;;;;;;;;5120977;27;51524;-53
2022/05/08 13:06:26;;;;;;;;;0.75;0.00;;;;;;;;5107645;27;51156;-52
2022/05/08 13:09:11;;;;;;;;;0.00;0.00;;;;;;;;5100592;27;51102;-53
2022/05/08 13:11:55;;;;;;;;;0.00;0.00;;;;;;;;5104365;27;51435;-55
2022/05/08 13:14:40;;;;;;;;;0.00;0.00;;;;;;;;5099630;27;51160;-52
2022/05/08 13:17:24;;;;;;;;;0.00;0.00;;;;;;;;5099816;27;51416;-52
2022/05/08 13:20:09;;;;;;;;;1.00;0.00;;;;;;;;5099818;27;51144;-51
2022/05/08 13:22:53;;;;;;;;;2.50;0.25;;;;;;;;5113779;27;51146;-54
2022/05/08 13:25:38;;;;;;;;;1.75;0.00;;;;;;;;5119206;27;51353;-55
2022/05/08 13:28:22;;;;;;;;;4.50;4.50;;;;;;;;5120405;27;51504;-53
2022/05/08 13:31:07;;;;;;;;;0.50;0.00;;;;;;;;5113389;27;51080;-54
2022/05/08 13:33:51;;;;;;;;;0.25;0.25;;;;;;;;5119754;27;51076;-55
2022/05/08 13:36:35;;;;;;;;;1.25;0.75;;;;;;;;5122237;27;51567;-53
2022/05/08 13:39:23;;;;;;;;;0.00;0.00;;;;;;;;5103779;27;51068;-54
2022/05/08 13:42:12;;;;;;;;;0.00;0.00;;;;;;;;5103027;27;52985;-55
2022/05/08 13:44:56;;;;;;;;;0.50;0.50;;;;;;;;5103519;27;51163;-55
2022/05/08 13:47:40;;;;;;;;;1.25;0.00;;;;;;;;5117507;27;51001;-52
2022/05/08 13:50:25;;;;;;;;;2.00;0.25;;;;;;;;5124497;27;51079;-53
2022/05/08 13:53:10;;;;;;;;;0.00;0.00;;;;;;;;5123983;27;51354;-53
2022/05/08 13:55:56;;;;;;;;;1.50;0.00;;;;;;;;5122967;27;51104;-51
2022/05/08 13:58:40;;;;;;;;;0.00;0.00;;;;;;;;5124352;27;51073;-52
2022/05/08 14:01:25;;;;;;;;;0.00;0.00;;;;;;;;5123779;27;51381;-51
2022/05/08 14:04:10;;;;;;;;;0.00;0.00;;;;;;;;5123780;27;51234;-53
2022/05/08 14:06:55;;;;;;;;;0.25;0.25;;;;;;;;5102827;27;51011;-53
2022/05/08 14:09:39;;;;;;;;;0.00;0.00;;;;;;;;5102634;27;51209;-54
2022/05/08 14:12:23;;;;;;;;;1.75;0.00;;;;;;;;5119886;27;51219;-53
2022/05/08 14:15:07;;;;;;;;;0.00;0.00;;;;;;;;5102814;27;51458;-56
2022/05/08 14:17:52;;;;;;;;;0.00;0.00;;;;;;;;5102554;27;51363;-52
2022/05/08 14:20:37;;;;;;;;;1.00;0.25;;;;;;;;5111315;27;51166;-52
2022/05/08 14:23:22;;;;;;;;;0.00;0.00;;;;;;;;5123703;27;51099;-52
2022/05/08 14:26:06;;;;;;;;;2.00;1.00;;;;;;;;5122947;27;51142;-51
2022/05/08 14:28:51;;;;;;;;;0.75;0.75;;;;;;;;5123046;27;51095;-55
2022/05/08 14:37:40;;;;;;;;;2.25;1.00;;;;;;;;5115859;27;51094;-55
2022/05/08 14:40:27;;;;;;;;;4.00;3.00;;;;;;;;5102339;27;51141;-55
2022/05/08 14:43:12;;;;;;;;;1.00;1.00;;;;;;;;5120158;27;51178;-55
2022/05/08 14:45:58;;;;;;;;;0.25;0.25;;;;;;;;5106946;27;51018;-55
2022/05/08 14:48:42;;;;;;;;;0.25;0.25;;;;;;;;5122808;27;51130;-56
2022/05/08 14:51:28;;;;;;;;;0.00;0.00;;;;;;;;5122911;27;51561;-51
2022/05/08 14:54:12;;;;;;;;;0.25;0.25;;;;;;;;5111381;27;51217;-55
2022/05/08 14:56:56;;;;;;;;;0.00;0.00;;;;;;;;5119335;27;51325;-54
2022/05/08 14:59:40;;;;;;;;;0.75;0.50;;;;;;;;5120557;27;51105;-55
2022/05/08 15:02:25;;;;;;;;;3.50;1.00;;;;;;;;5122594;27;51138;-54
2022/05/08 15:05:09;;;;;;;;;0.50;0.25;;;;;;;;5118561;27;51078;-53
2022/05/08 15:07:54;;;;;;;;;0.00;0.00;;;;;;;;5101575;27;51205;-56
2022/05/08 15:10:38;;;;;;;;;2.50;1.00;;;;;;;;5118332;27;51155;-54
2022/05/08 15:13:23;;;;;;;;;0.00;0.00;;;;;;;;5122652;27;51087;-54
2022/05/08 15:16:08;;;;;;;;;0.50;0.50;;;;;;;;5122050;27;51158;-54
2022/05/08 15:18:52;;;;;;;;;0.00;0.00;;;;;;;;5122594;27;51094;-54
2022/05/08 15:21:37;;;;;;;;;1.00;1.00;;;;;;;;5111332;27;51527;-54
2022/05/08 15:24:21;;;;;;;;;0.50;0.50;;;;;;;;5106482;27;51097;-52
2022/05/08 15:27:09;;;;;;;;;2.00;1.00;;;;;;;;5092604;27;51520;-53
2022/05/08 15:29:53;;;;;;;;;0.75;0.00;;;;;;;;5103970;27;51201;-53
2022/05/08 15:32:38;;;;;;;;;1.00;1.00;;;;;;;;5109021;27;51084;-52
2022/05/08 15:35:22;;;;;;;;;0.75;0.75;;;;;;;;5090116;27;51149;-53
2022/05/08 15:38:07;;;;;;;;;2.25;2.25;;;;;;;;5110253;27;51171;-53
2022/05/08 15:41:01;;;;;;;;;0.25;0.25;;;;;;;;5113121;27;51125;-52
2022/05/08 15:43:46;;;;;;;;;2.00;0.50;;;;;;;;5101374;27;51121;-53
2022/05/08 15:46:31;;;;;;;;;1.00;1.00;;;;;;;;5108407;27;51176;-55
2022/05/08 15:49:15;;;;;;;;;2.75;1.00;;;;;;;;5120577;27;51099;-55
2022/05/08 15:51:59;;;;;;;;;0.75;0.75;;;;;;;;5110328;27;51210;-52
2022/05/08 15:54:44;;;;;;;;;2.50;1.00;;;;;;;;5111964;27;51113;-54
2022/05/08 15:57:28;;;;;;;;;1.75;1.75;;;;;;;;5098268;27;52260;-51
2022/05/08 16:00:13;;;;;;;;;3.00;1.00;;;;;;;;5107740;27;51042;-54
2022/05/08 16:02:57;;;;;;;;;2.00;0.25;;;;;;;;5112575;27;51018;-56
2022/05/08 16:05:42;;;;;;;;;1.00;1.00;;;;;;;;5103216;27;51473;-52
2022/05/08 16:08:26;;;;;;;;;2.00;2.00;;;;;;;;5112885;27;51182;-55
2022/05/08 16:11:11;;;;;;;;;3.75;1.00;;;;;;;;5114065;27;51504;-53
2022/05/08 16:23:13;;;;;;;;;0.25;0.00;;;;;;;;5113421;27;51250;-51
2022/05/08 16:25:58;;;;;;;;;5.25;1.00;;;;;;;;5103480;27;51128;-55
2022/05/08 16:28:42;;;;;;;;;3.25;2.00;;;;;;;;5116581;27;51144;-52
2022/05/08 16:31:27;;;;;;;;;3.00;1.50;;;;;;;;5108491;27;51367;-52
2022/05/08 16:34:11;;;;;;;;;0.75;0.75;;;;;;;;5114706;27;50988;-53
2022/05/08 16:36:56;;;;;;;;;1.00;1.00;;;;;;;;5113900;27;51383;-52
2022/05/08 16:39:40;;;;;;;;;1.00;1.00;;;;;;;;5102770;27;51172;-54
2022/05/08 16:42:25;;;;;;;;;3.25;3.25;;;;;;;;5100210;27;51000;-52
2022/05/08 16:45:09;;;;;;;;;2.00;1.00;;;;;;;;5113577;27;51169;-54
2022/05/08 16:47:55;;;;;;;;;1.00;1.00;;;;;;;;5099980;27;51198;-54
2022/05/08 16:50:42;;;;;;;;;1.00;1.00;;;;;;;;5111715;27;51139;-51
2022/05/08 16:53:26;;;;;;;;;3.50;1.00;;;;;;;;5103375;27;50963;-53
2022/05/08 16:56:11;;;;;;;;;3.75;1.75;;;;;;;;5102937;27;51378;-53
2022/05/08 16:58:55;;;;;;;;;2.25;1.25;;;;;;;;5102986;27;51221;-52
2022/05/08 17:01:40;;;;;;;;;3.00;3.00;;;;;;;;5111630;27;51396;-54
2022/05/08 17:04:24;;;;;;;;;2.00;1.00;;;;;;;;5103671;27;51110;-52
2022/05/08 17:07:08;;;;;;;;;6.50;2.50;;;;;;;;5104663;27;51409;-52
2022/05/08 17:09:53;;;;;;;;;3.00;2.00;;;;;;;;5107863;27;51235;-55